| time (UTC) | temp F | wind direction | speed MPH | gust MPH | rain 1hr in | rain 24hr in | rain mn in | humidity % | barometer mb |
| 20260510094555 | 66 | 89 | 0.0 | 0.0 | 0.00 | 0.40 | 0.00 | 91 | 1010.8 |
| 20260510093109 | 66 | 89 | 0.0 | 0.0 | 0.00 | 0.40 | 0.00 | 91 | 1010.5 |
| 20260510091553 | 66 | 89 | 0.0 | 0.0 | 0.00 | 0.40 | 0.00 | 91 | 1010.3 |
| 20260510090109 | 66 | 89 | 0.0 | 0.0 | 0.00 | 0.40 | 0.00 | 91 | 1010.2 |
| 20260510084557 | 66 | 89 | 0.0 | 0.0 | 0.00 | 0.40 | 0.00 | 90 | 1010.3 |
| 20260510083109 | 66 | 89 | 0.0 | 0.0 | 0.00 | 0.40 | 0.00 | 90 | 1010.2 |
| 20260510081607 | 67 | 89 | 0.0 | 0.0 | 0.00 | 0.40 | 0.00 | 90 | 1010.2 |
| 20260510080056 | 67 | 89 | 0.0 | 0.0 | 0.00 | 0.40 | 0.00 | 90 | 1010.1 |
| 20260510074602 | 67 | 89 | 0.0 | 0.0 | 0.00 | 0.40 | 0.00 | 91 | 1010.2 |
| 20260510073017 | 68 | 89 | 0.0 | 0.0 | 0.00 | 0.40 | 0.00 | 91 | 1010.0 |
| 20260510071544 | 68 | 89 | 0.0 | 0.0 | 0.00 | 0.40 | 0.00 | 91 | 1010.0 |
| 20260510070056 | 68 | 89 | 0.0 | 0.0 | 0.00 | 0.40 | 0.00 | 91 | 1010.1 |
| 20260510064607 | 68 | 89 | 0.0 | 0.0 | 0.00 | 0.40 | 0.00 | 91 | 1010.1 |
| 20260510063059 | 68 | 89 | 0.0 | 0.0 | 0.00 | 0.40 | 0.00 | 91 | 1010.0 |
| 20260510061605 | 69 | 89 | 0.0 | 0.0 | 0.00 | 0.40 | 0.00 | 91 | 1010.0 |
| 20260510060009 | 69 | 89 | 0.0 | 0.0 | 0.00 | 0.40 | 0.00 | 91 | 1010.1 |
| 20260510054540 | 69 | 89 | 0.0 | 0.0 | 0.00 | 0.40 | 0.00 | 90 | 1010.1 |
| 20260510053100 | 69 | 89 | 0.0 | 0.0 | 0.00 | 0.40 | 0.00 | 91 | 1010.1 |
| 20260510051504 | 70 | 89 | 0.0 | 0.0 | 0.00 | 0.40 | 0.00 | 91 | 1009.9 |
| 20260510050018 | 70 | 89 | 0.0 | 0.0 | 0.00 | 0.40 | 0.40 | 91 | 1009.7 |
| 20260510044605 | 70 | 89 | 0.0 | 0.0 | 0.00 | 0.40 | 0.40 | 91 | 1009.6 |
| 20260510043046 | 70 | 89 | 0.0 | 0.0 | 0.00 | 0.40 | 0.40 | 91 | 1009.6 |
| 20260510041546 | 70 | 89 | 0.0 | 0.0 | 0.00 | 0.40 | 0.40 | 91 | 1009.6 |
| 20260510040039 | 70 | 89 | 0.0 | 0.0 | 0.00 | 0.40 | 0.40 | 90 | 1009.4 |
| 20260510034540 | 70 | 89 | 0.0 | 0.0 | 0.00 | 0.40 | 0.40 | 90 | 1009.3 |
| 20260510033039 | 70 | 89 | 0.0 | 0.0 | 0.00 | 0.40 | 0.40 | 90 | 1009.2 |
| 20260510031539 | 71 | 89 | 0.0 | 0.0 | 0.00 | 0.40 | 0.40 | 90 | 1009.0 |
| 20260510030041 | 71 | 89 | 0.0 | 0.0 | 0.00 | 0.40 | 0.40 | 90 | 1008.8 |
| 20260510024541 | 71 | 89 | 0.0 | 0.0 | 0.00 | 0.40 | 0.40 | 90 | 1008.6 |
| 20260510023036 | 72 | 89 | 0.0 | 0.0 | 0.00 | 0.40 | 0.40 | 90 | 1008.5 |
| 20260510021535 | 72 | 89 | 0.0 | 0.0 | 0.00 | 0.40 | 0.40 | 90 | 1008.5 |
| 20260510020041 | 72 | 89 | 0.0 | 0.0 | 0.00 | 0.40 | 0.40 | 89 | 1008.3 |
| 20260510014551 | 72 | 89 | 0.0 | 0.0 | 0.00 | 0.40 | 0.40 | 89 | 1008.1 |
| 20260510013049 | 72 | 89 | 0.0 | 0.0 | 0.00 | 0.40 | 0.40 | 89 | 1007.9 |
| 20260510011555 | 73 | 89 | 0.0 | 0.0 | 0.00 | 0.40 | 0.40 | 89 | 1007.7 |
| 20260510010114 | 73 | 89 | 0.0 | 0.0 | 0.00 | 0.40 | 0.40 | 89 | 1007.6 |
| 20260510004550 | 73 | 89 | 0.0 | 0.0 | 0.00 | 0.40 | 0.40 | 89 | 1007.3 |
| 20260510003050 | 73 | 89 | 0.0 | 0.0 | 0.00 | 0.40 | 0.40 | 88 | 1007.2 |
| 20260510001548 | 72 | 89 | 0.0 | 0.0 | 0.04 | 0.40 | 0.40 | 88 | 1007.0 |
| 20260510000052 | 72 | 89 | 0.0 | 0.0 | 0.37 | 0.40 | 0.40 | 86 | 1006.7 |
| 20260509234632 | 72 | 89 | 0.0 | 0.0 | 0.38 | 0.40 | 0.40 | 84 | 1006.5 |
| 20260509233055 | 74 | 84 | 0.0 | 2.0 | 0.38 | 0.40 | 0.40 | 85 | 1006.5 |
| 20260509231552 | 75 | 207 | 0.0 | 4.0 | 0.34 | 0.36 | 0.36 | 75 | 1006.1 |
| 20260509230050 | 85 | 145 | 0.0 | 3.0 | 0.01 | 0.03 | 0.03 | 63 | 1006.9 |
| 20260509224549 | 89 | 140 | 0.0 | 3.0 | 0.00 | 0.02 | 0.02 | 54 | 1006.7 |
| 20260509223050 | 90 | 170 | 0.0 | 5.0 | 0.00 | 0.02 | 0.02 | 52 | 1006.6 |
| 20260509221546 | 90 | 226 | 0.0 | 6.0 | 0.00 | 0.02 | 0.02 | 52 | 1006.4 |
| 20260509220057 | 90 | 329 | 1.0 | 4.0 | 0.00 | 0.02 | 0.02 | 52 | 1006.5 |
| 20260509214508 | 91 | 218 | 1.0 | 6.0 | 0.00 | 0.02 | 0.02 | 51 | 1006.7 |
| 20260509213006 | 90 | 343 | 0.0 | 4.0 | 0.00 | 0.02 | 0.02 | 50 | 1006.6 |
| 20260509211505 | 90 | 200 | 0.0 | 7.0 | 0.00 | 0.02 | 0.02 | 52 | 1006.8 |
| 20260509210004 | 91 | 302 | 1.0 | 4.0 | 0.00 | 0.02 | 0.02 | 53 | 1007.0 |
| 20260509204607 | 90 | 315 | 1.0 | 4.0 | 0.00 | 0.02 | 0.02 | 53 | 1007.2 |
| 20260509203145 | 91 | 168 | 1.0 | 8.0 | 0.00 | 0.02 | 0.02 | 52 | 1007.5 |
| 20260509201515 | 91 | 175 | 0.0 | 4.0 | 0.00 | 0.02 | 0.02 | 54 | 1007.6 |
| 20260509200008 | 89 | 207 | 0.0 | 4.0 | 0.00 | 0.02 | 0.02 | 56 | 1007.9 |
| 20260509194505 | 90 | 212 | 2.0 | 7.0 | 0.00 | 0.02 | 0.02 | 57 | 1008.2 |
| 20260509193136 | 90 | 166 | 0.0 | 5.0 | 0.00 | 0.02 | 0.02 | 58 | 1008.6 |
| 20260509191616 | 89 | 198 | 0.0 | 3.0 | 0.00 | 0.02 | 0.02 | 57 | 1008.8 |
| 20260509190006 | 89 | 156 | 0.0 | 7.0 | 0.00 | 0.02 | 0.02 | 57 | 1008.9 |
| 20260509184519 | 88 | 212 | 0.0 | 5.0 | 0.00 | 0.02 | 0.02 | 59 | 1009.0 |
| 20260509183015 | 87 | 268 | 0.0 | 3.0 | 0.00 | 0.02 | 0.02 | 60 | 1009.2 |
| 20260509181509 | 87 | 122 | 0.0 | 4.0 | 0.00 | 0.02 | 0.02 | 62 | 1009.4 |
| 20260509180009 | 87 | 241 | 0.0 | 3.0 | 0.00 | 0.02 | 0.02 | 65 | 1009.6 |
| 20260509174511 | 86 | 285 | 0.0 | 4.0 | 0.00 | 0.02 | 0.02 | 66 | 1009.7 |
| 20260509173007 | 86 | 211 | 1.0 | 3.0 | 0.00 | 0.02 | 0.02 | 65 | 1009.9 |
| 20260509171503 | 85 | 300 | 0.0 | 3.0 | 0.00 | 0.02 | 0.02 | 67 | 1010.0 |
| 20260509170001 | 83 | 297 | 0.0 | 5.0 | 0.00 | 0.02 | 0.02 | 71 | 1010.0 |
| 20260509164609 | 82 | 58 | 1.0 | 5.0 | 0.00 | 0.02 | 0.02 | 74 | 1010.2 |
| 20260509163048 | 81 | 165 | 1.0 | 3.0 | 0.00 | 0.02 | 0.02 | 78 | 1010.3 |
| 20260509161554 | 80 | 217 | 0.0 | 2.0 | 0.01 | 0.02 | 0.02 | 80 | 1010.1 |
| 20260509160045 | 78 | 124 | 1.0 | 5.0 | 0.01 | 0.02 | 0.02 | 81 | 1009.9 |
| 20260509154542 | 76 | 160 | 1.0 | 3.0 | 0.02 | 0.02 | 0.02 | 86 | 1010.2 |
| 20260509153038 | 75 | 300 | 0.0 | 2.0 | 0.02 | 0.02 | 0.02 | 91 | 1010.5 |
| 20260509151535 | 73 | 205 | 0.0 | 0.0 | 0.01 | 0.01 | 0.01 | 91 | 1011.0 |
| 20260509150052 | 73 | 222 | 0.0 | 0.0 | 0.01 | 0.01 | 0.01 | 91 | 1010.9 |
| 20260509144551 | 73 | 222 | 0.0 | 0.0 | 0.00 | 0.00 | 0.00 | 91 | 1011.0 |
| 20260509143049 | 72 | 220 | 0.0 | 0.0 | 0.00 | 0.00 | 0.00 | 91 | 1011.0 |
| 20260509141547 | 72 | 215 | 0.0 | 2.0 | 0.00 | 0.00 | 0.00 | 91 | 1011.0 |
| 20260509140048 | 72 | 314 | 0.0 | 2.0 | 0.00 | 0.00 | 0.00 | 91 | 1010.7 |
| 20260509134543 | 72 | 31 | 2.0 | 5.0 | 0.00 | 0.00 | 0.00 | 91 | 1009.8 |
| 20260509133041 | 72 | 346 | 0.0 | 2.0 | 0.00 | 0.00 | 0.00 | 91 | 1009.7 |
| 20260509131545 | 72 | 212 | 0.0 | 1.0 | 0.00 | 0.00 | 0.00 | 91 | 1009.9 |
| 20260509130057 | 72 | 229 | 0.0 | 1.0 | 0.00 | 0.00 | 0.00 | 91 | 1010.2 |
| 20260509124544 | 72 | 26 | 0.0 | 0.0 | 0.00 | 0.00 | 0.00 | 91 | 1010.2 |
| 20260509123050 | 72 | 26 | 0.0 | 0.0 | 0.00 | 0.00 | 0.00 | 91 | 1010.3 |
| 20260509121545 | 72 | 24 | 1.0 | 3.0 | 0.00 | 0.00 | 0.00 | 91 | 1010.4 |
| 20260509120050 | 72 | 36 | 1.0 | 7.0 | 0.00 | 0.00 | 0.00 | 91 | 1010.5 |
| 20260509114549 | 72 | 347 | 2.0 | 5.0 | 0.00 | 0.00 | 0.00 | 91 | 1010.5 |
| 20260509113049 | 72 | 11 | 0.0 | 5.0 | 0.00 | 0.00 | 0.00 | 91 | 1010.1 |
| 20260509111548 | 72 | 20 | 1.0 | 3.0 | 0.00 | 0.00 | 0.00 | 91 | 1009.5 |
| 20260509110047 | 72 | 353 | 0.0 | 0.0 | 0.00 | 0.00 | 0.00 | 91 | 1009.5 |
| 20260509104546 | 72 | 11 | 0.0 | 0.0 | 0.00 | 0.00 | 0.00 | 91 | 1009.7 |
| 20260509103045 | 72 | 6 | 0.0 | 1.0 | 0.00 | 0.00 | 0.00 | 91 | 1009.7 |
| 20260509101544 | 72 | 359 | 0.0 | 0.0 | 0.00 | 0.00 | 0.00 | 91 | 1009.7 |
| 20260509100044 | 72 | 330 | 0.0 | 2.0 | 0.00 | 0.00 | 0.00 | 91 | 1009.7 |